sensor_id;sensor_type;location;lat;lon;timestamp;P1;durP1;ratioP1;P2;durP2;ratioP2
77876;SDS011;67251;50.844;7.978;2023-06-26T00:01:40;10.25;;;5.75;;
77876;SDS011;67251;50.844;7.978;2023-06-26T00:04:05;11.13;;;5.68;;
77876;SDS011;67251;50.844;7.978;2023-06-26T00:06:31;9.02;;;5.22;;
77876;SDS011;67251;50.844;7.978;2023-06-26T00:08:56;7.90;;;5.10;;
77876;SDS011;67251;50.844;7.978;2023-06-26T00:11:24;11.68;;;5.80;;
77876;SDS011;67251;50.844;7.978;2023-06-26T00:13:49;10.13;;;5.88;;
77876;SDS011;67251;50.844;7.978;2023-06-26T00:16:15;9.73;;;5.45;;
77876;SDS011;67251;50.844;7.978;2023-06-26T00:18:40;8.95;;;5.18;;
77876;SDS011;67251;50.844;7.978;2023-06-26T00:21:06;9.82;;;5.60;;
77876;SDS011;67251;50.844;7.978;2023-06-26T00:23:31;11.07;;;5.68;;
77876;SDS011;67251;50.844;7.978;2023-06-26T00:25:58;10.13;;;5.82;;
77876;SDS011;67251;50.844;7.978;2023-06-26T00:28:23;9.10;;;5.28;;
77876;SDS011;67251;50.844;7.978;2023-06-26T00:30:48;9.98;;;5.55;;
77876;SDS011;67251;50.844;7.978;2023-06-26T00:33:14;9.80;;;5.93;;
77876;SDS011;67251;50.844;7.978;2023-06-26T00:35:40;8.93;;;5.70;;
77876;SDS011;67251;50.844;7.978;2023-06-26T00:38:06;11.70;;;5.30;;
77876;SDS011;67251;50.844;7.978;2023-06-26T00:40:31;10.45;;;5.97;;
77876;SDS011;67251;50.844;7.978;2023-06-26T00:42:56;12.48;;;6.57;;
77876;SDS011;67251;50.844;7.978;2023-06-26T00:45:22;10.18;;;5.95;;
77876;SDS011;67251;50.844;7.978;2023-06-26T00:47:47;8.75;;;5.43;;
77876;SDS011;67251;50.844;7.978;2023-06-26T00:50:13;9.35;;;5.20;;
77876;SDS011;67251;50.844;7.978;2023-06-26T00:52:40;10.40;;;6.07;;
77876;SDS011;67251;50.844;7.978;2023-06-26T00:55:06;10.45;;;5.47;;
77876;SDS011;67251;50.844;7.978;2023-06-26T00:57:32;9.60;;;6.00;;
77876;SDS011;67251;50.844;7.978;2023-06-26T00:59:58;9.70;;;5.85;;
77876;SDS011;67251;50.844;7.978;2023-06-26T01:02:24;10.70;;;5.60;;
77876;SDS011;67251;50.844;7.978;2023-06-26T01:04:49;10.65;;;6.28;;
77876;SDS011;67251;50.844;7.978;2023-06-26T01:07:16;11.93;;;5.97;;
77876;SDS011;67251;50.844;7.978;2023-06-26T01:09:43;12.02;;;6.15;;
77876;SDS011;67251;50.844;7.978;2023-06-26T01:12:13;11.20;;;6.05;;
77876;SDS011;67251;50.844;7.978;2023-06-26T01:14:38;11.00;;;6.10;;
77876;SDS011;67251;50.844;7.978;2023-06-26T01:17:04;11.68;;;6.20;;
77876;SDS011;67251;50.844;7.978;2023-06-26T01:19:31;9.02;;;5.47;;
77876;SDS011;67251;50.844;7.978;2023-06-26T01:27:42;10.23;;;5.95;;
77876;SDS011;67251;50.844;7.978;2023-06-26T01:30:10;8.90;;;5.35;;
77876;SDS011;67251;50.844;7.978;2023-06-26T01:32:36;10.48;;;6.32;;
77876;SDS011;67251;50.844;7.978;2023-06-26T01:35:04;14.85;;;6.70;;
77876;SDS011;67251;50.844;7.978;2023-06-26T01:37:32;12.60;;;5.90;;
77876;SDS011;67251;50.844;7.978;2023-06-26T01:39:57;11.02;;;6.40;;
77876;SDS011;67251;50.844;7.978;2023-06-26T01:42:22;9.00;;;6.22;;
77876;SDS011;67251;50.844;7.978;2023-06-26T01:44:48;11.52;;;5.85;;
77876;SDS011;67251;50.844;7.978;2023-06-26T01:52:46;11.10;;;6.63;;
77876;SDS011;67251;50.844;7.978;2023-06-26T01:57:52;10.93;;;5.80;;
77876;SDS011;67251;50.844;7.978;2023-06-26T02:00:20;10.43;;;5.85;;
77876;SDS011;67251;50.844;7.978;2023-06-26T02:02:48;9.77;;;5.80;;
77876;SDS011;67251;50.844;7.978;2023-06-26T02:05:13;12.40;;;5.75;;
77876;SDS011;67251;50.844;7.978;2023-06-26T02:07:41;11.82;;;6.28;;
77876;SDS011;67251;50.844;7.978;2023-06-26T02:10:07;10.20;;;5.40;;
77876;SDS011;67251;50.844;7.978;2023-06-26T02:12:34;13.00;;;6.38;;
77876;SDS011;67251;50.844;7.978;2023-06-26T02:15:00;8.38;;;5.40;;
77876;SDS011;67251;50.844;7.978;2023-06-26T02:17:26;10.88;;;6.10;;
77876;SDS011;67251;50.844;7.978;2023-06-26T02:19:52;10.77;;;6.03;;
77876;SDS011;67251;50.844;7.978;2023-06-26T02:22:17;10.35;;;6.03;;
77876;SDS011;67251;50.844;7.978;2023-06-26T02:24:43;9.75;;;6.20;;
77876;SDS011;67251;50.844;7.978;2023-06-26T02:27:08;9.43;;;5.80;;
77876;SDS011;67251;50.844;7.978;2023-06-26T02:29:34;10.68;;;5.78;;
77876;SDS011;67251;50.844;7.978;2023-06-26T02:32:00;10.13;;;5.50;;
77876;SDS011;67251;50.844;7.978;2023-06-26T02:34:25;11.02;;;5.88;;
77876;SDS011;67251;50.844;7.978;2023-06-26T02:36:51;12.18;;;6.03;;
77876;SDS011;67251;50.844;7.978;2023-06-26T02:39:19;9.90;;;5.95;;
77876;SDS011;67251;50.844;7.978;2023-06-26T02:41:45;11.95;;;6.60;;
77876;SDS011;67251;50.844;7.978;2023-06-26T02:44:10;11.20;;;6.13;;
77876;SDS011;67251;50.844;7.978;2023-06-26T02:46:37;14.57;;;6.68;;
77876;SDS011;67251;50.844;7.978;2023-06-26T02:49:02;11.45;;;6.18;;
77876;SDS011;67251;50.844;7.978;2023-06-26T02:51:28;9.52;;;5.50;;
77876;SDS011;67251;50.844;7.978;2023-06-26T02:53:53;11.35;;;6.20;;
77876;SDS011;67251;50.844;7.978;2023-06-26T02:56:19;10.50;;;6.13;;
77876;SDS011;67251;50.844;7.978;2023-06-26T02:58:44;11.07;;;5.95;;
77876;SDS011;67251;50.844;7.978;2023-06-26T03:01:09;11.85;;;6.65;;
77876;SDS011;67251;50.844;7.978;2023-06-26T03:03:35;10.60;;;5.70;;
77876;SDS011;67251;50.844;7.978;2023-06-26T03:06:05;12.13;;;6.38;;
77876;SDS011;67251;50.844;7.978;2023-06-26T03:08:32;11.82;;;6.05;;
77876;SDS011;67251;50.844;7.978;2023-06-26T03:10:58;10.68;;;6.07;;
77876;SDS011;67251;50.844;7.978;2023-06-26T03:13:23;10.52;;;6.20;;
77876;SDS011;67251;50.844;7.978;2023-06-26T03:15:48;11.75;;;5.93;;
77876;SDS011;67251;50.844;7.978;2023-06-26T03:18:14;11.80;;;6.22;;
77876;SDS011;67251;50.844;7.978;2023-06-26T03:20:39;10.23;;;6.13;;
77876;SDS011;67251;50.844;7.978;2023-06-26T03:23:05;10.65;;;5.85;;
77876;SDS011;67251;50.844;7.978;2023-06-26T03:25:30;11.80;;;6.13;;
77876;SDS011;67251;50.844;7.978;2023-06-26T03:27:56;10.68;;;5.88;;
77876;SDS011;67251;50.844;7.978;2023-06-26T03:30:21;9.82;;;5.95;;
77876;SDS011;67251;50.844;7.978;2023-06-26T03:32:46;11.38;;;6.32;;
77876;SDS011;67251;50.844;7.978;2023-06-26T03:35:12;9.55;;;5.20;;
77876;SDS011;67251;50.844;7.978;2023-06-26T03:37:37;11.43;;;5.78;;
77876;SDS011;67251;50.844;7.978;2023-06-26T03:40:02;10.20;;;6.22;;
77876;SDS011;67251;50.844;7.978;2023-06-26T03:42:29;13.43;;;7.13;;
77876;SDS011;67251;50.844;7.978;2023-06-26T03:44:55;11.80;;;6.28;;
77876;SDS011;67251;50.844;7.978;2023-06-26T03:47:20;9.90;;;6.60;;
77876;SDS011;67251;50.844;7.978;2023-06-26T03:49:45;11.45;;;6.20;;
77876;SDS011;67251;50.844;7.978;2023-06-26T03:52:11;10.43;;;6.18;;
77876;SDS011;67251;50.844;7.978;2023-06-26T03:54:36;11.35;;;6.03;;
77876;SDS011;67251;50.844;7.978;2023-06-26T03:57:02;10.40;;;5.38;;
77876;SDS011;67251;50.844;7.978;2023-06-26T03:59:27;11.00;;;6.10;;
77876;SDS011;67251;50.844;7.978;2023-06-26T04:01:53;12.45;;;6.45;;
77876;SDS011;67251;50.844;7.978;2023-06-26T04:04:18;10.52;;;5.88;;
77876;SDS011;67251;50.844;7.978;2023-06-26T04:06:44;11.57;;;6.85;;
77876;SDS011;67251;50.844;7.978;2023-06-26T04:09:09;12.93;;;7.15;;
77876;SDS011;67251;50.844;7.978;2023-06-26T04:11:34;10.80;;;5.70;;
77876;SDS011;67251;50.844;7.978;2023-06-26T04:14:00;9.88;;;6.20;;
77876;SDS011;67251;50.844;7.978;2023-06-26T04:16:25;10.60;;;6.45;;
77876;SDS011;67251;50.844;7.978;2023-06-26T04:18:51;14.48;;;7.57;;
77876;SDS011;67251;50.844;7.978;2023-06-26T04:21:17;13.07;;;6.03;;
77876;SDS011;67251;50.844;7.978;2023-06-26T04:23:43;9.63;;;5.85;;
77876;SDS011;67251;50.844;7.978;2023-06-26T04:26:08;10.30;;;5.82;;
77876;SDS011;67251;50.844;7.978;2023-06-26T04:28:34;10.15;;;5.35;;
77876;SDS011;67251;50.844;7.978;2023-06-26T04:31:00;9.40;;;5.43;;
77876;SDS011;67251;50.844;7.978;2023-06-26T04:33:26;11.55;;;5.88;;
77876;SDS011;67251;50.844;7.978;2023-06-26T04:35:52;10.02;;;5.38;;
77876;SDS011;67251;50.844;7.978;2023-06-26T04:38:19;11.57;;;5.80;;
77876;SDS011;67251;50.844;7.978;2023-06-26T04:40:45;9.75;;;6.13;;
77876;SDS011;67251;50.844;7.978;2023-06-26T04:43:10;9.93;;;5.30;;
77876;SDS011;67251;50.844;7.978;2023-06-26T04:45:36;11.38;;;5.57;;
77876;SDS011;67251;50.844;7.978;2023-06-26T04:48:01;9.27;;;5.85;;
77876;SDS011;67251;50.844;7.978;2023-06-26T04:50:27;9.43;;;5.68;;
77876;SDS011;67251;50.844;7.978;2023-06-26T04:52:54;10.23;;;5.30;;
77876;SDS011;67251;50.844;7.978;2023-06-26T04:55:20;8.50;;;5.00;;
77876;SDS011;67251;50.844;7.978;2023-06-26T04:57:46;9.77;;;5.80;;
77876;SDS011;67251;50.844;7.978;2023-06-26T05:00:12;9.27;;;5.35;;
77876;SDS011;67251;50.844;7.978;2023-06-26T05:02:38;10.23;;;5.32;;
77876;SDS011;67251;50.844;7.978;2023-06-26T05:05:03;8.55;;;5.82;;
77876;SDS011;67251;50.844;7.978;2023-06-26T05:07:29;10.32;;;5.50;;
77876;SDS011;67251;50.844;7.978;2023-06-26T05:09:54;11.98;;;6.15;;
77876;SDS011;67251;50.844;7.978;2023-06-26T05:12:20;9.55;;;6.10;;
77876;SDS011;67251;50.844;7.978;2023-06-26T05:14:45;11.20;;;5.65;;
77876;SDS011;67251;50.844;7.978;2023-06-26T05:17:13;9.95;;;5.93;;
77876;SDS011;67251;50.844;7.978;2023-06-26T05:19:39;10.90;;;5.85;;
77876;SDS011;67251;50.844;7.978;2023-06-26T05:22:04;9.93;;;6.25;;
77876;SDS011;67251;50.844;7.978;2023-06-26T05:24:33;9.80;;;5.40;;
77876;SDS011;67251;50.844;7.978;2023-06-26T05:27:01;11.05;;;6.03;;
77876;SDS011;67251;50.844;7.978;2023-06-26T05:29:27;10.52;;;5.90;;
77876;SDS011;67251;50.844;7.978;2023-06-26T05:31:52;10.90;;;6.35;;
77876;SDS011;67251;50.844;7.978;2023-06-26T05:34:19;9.55;;;5.72;;
77876;SDS011;67251;50.844;7.978;2023-06-26T05:36:47;11.50;;;6.32;;
77876;SDS011;67251;50.844;7.978;2023-06-26T05:39:15;9.13;;;5.65;;
77876;SDS011;67251;50.844;7.978;2023-06-26T05:41:41;10.05;;;5.93;;
77876;SDS011;67251;50.844;7.978;2023-06-26T05:44:09;11.75;;;5.70;;
77876;SDS011;67251;50.844;7.978;2023-06-26T05:46:34;8.25;;;5.47;;
77876;SDS011;67251;50.844;7.978;2023-06-26T05:49:00;10.65;;;5.90;;
77876;SDS011;67251;50.844;7.978;2023-06-26T05:51:26;10.13;;;6.57;;
77876;SDS011;67251;50.844;7.978;2023-06-26T05:53:52;11.63;;;6.05;;
77876;SDS011;67251;50.844;7.978;2023-06-26T05:56:17;12.13;;;6.32;;
77876;SDS011;67251;50.844;7.978;2023-06-26T05:58:43;10.52;;;6.18;;
77876;SDS011;67251;50.844;7.978;2023-06-26T06:01:09;10.10;;;5.63;;
77876;SDS011;67251;50.844;7.978;2023-06-26T06:03:34;10.10;;;5.88;;
77876;SDS011;67251;50.844;7.978;2023-06-26T06:06:00;10.10;;;5.55;;
77876;SDS011;67251;50.844;7.978;2023-06-26T06:08:25;9.27;;;5.60;;
77876;SDS011;67251;50.844;7.978;2023-06-26T06:10:51;9.80;;;5.00;;
77876;SDS011;67251;50.844;7.978;2023-06-26T06:13:16;9.13;;;4.80;;
77876;SDS011;67251;50.844;7.978;2023-06-26T06:15:41;7.70;;;4.60;;
77876;SDS011;67251;50.844;7.978;2023-06-26T06:18:07;7.07;;;4.18;;
77876;SDS011;67251;50.844;7.978;2023-06-26T06:20:32;8.30;;;4.70;;
77876;SDS011;67251;50.844;7.978;2023-06-26T06:22:57;8.52;;;4.15;;
77876;SDS011;67251;50.844;7.978;2023-06-26T06:25:23;7.88;;;4.53;;
77876;SDS011;67251;50.844;7.978;2023-06-26T06:27:48;7.63;;;4.38;;
77876;SDS011;67251;50.844;7.978;2023-06-26T06:30:14;7.65;;;4.38;;
77876;SDS011;67251;50.844;7.978;2023-06-26T06:32:39;7.93;;;4.70;;
77876;SDS011;67251;50.844;7.978;2023-06-26T06:35:05;9.13;;;4.75;;
77876;SDS011;67251;50.844;7.978;2023-06-26T06:37:34;8.25;;;4.82;;
77876;SDS011;67251;50.844;7.978;2023-06-26T06:40:01;8.52;;;4.75;;
77876;SDS011;67251;50.844;7.978;2023-06-26T06:42:28;7.57;;;4.30;;
77876;SDS011;67251;50.844;7.978;2023-06-26T06:44:53;11.38;;;5.28;;
77876;SDS011;67251;50.844;7.978;2023-06-26T06:47:19;8.60;;;4.28;;
77876;SDS011;67251;50.844;7.978;2023-06-26T06:49:44;7.35;;;4.10;;
77876;SDS011;67251;50.844;7.978;2023-06-26T06:52:10;8.88;;;4.65;;
77876;SDS011;67251;50.844;7.978;2023-06-26T06:54:50;7.30;;;4.53;;
77876;SDS011;67251;50.844;7.978;2023-06-26T06:57:19;8.68;;;4.43;;
77876;SDS011;67251;50.844;7.978;2023-06-26T06:59:46;10.65;;;4.78;;
77876;SDS011;67251;50.844;7.978;2023-06-26T07:02:12;9.27;;;5.03;;
77876;SDS011;67251;50.844;7.978;2023-06-26T07:04:38;7.95;;;4.57;;
77876;SDS011;67251;50.844;7.978;2023-06-26T07:07:03;7.68;;;4.78;;
77876;SDS011;67251;50.844;7.978;2023-06-26T07:09:29;8.85;;;4.75;;
77876;SDS011;67251;50.844;7.978;2023-06-26T07:11:54;7.53;;;4.25;;
77876;SDS011;67251;50.844;7.978;2023-06-26T07:14:20;7.45;;;4.47;;
77876;SDS011;67251;50.844;7.978;2023-06-26T07:16:45;8.40;;;5.05;;
77876;SDS011;67251;50.844;7.978;2023-06-26T07:19:10;8.63;;;4.60;;
77876;SDS011;67251;50.844;7.978;2023-06-26T07:21:36;7.95;;;5.07;;
77876;SDS011;67251;50.844;7.978;2023-06-26T07:24:01;8.13;;;4.70;;
77876;SDS011;67251;50.844;7.978;2023-06-26T07:26:26;7.82;;;5.05;;
77876;SDS011;67251;50.844;7.978;2023-06-26T07:28:52;7.75;;;4.75;;
77876;SDS011;67251;50.844;7.978;2023-06-26T07:31:18;7.80;;;4.50;;
77876;SDS011;67251;50.844;7.978;2023-06-26T07:33:43;7.70;;;4.50;;
77876;SDS011;67251;50.844;7.978;2023-06-26T07:36:09;7.80;;;4.88;;
77876;SDS011;67251;50.844;7.978;2023-06-26T07:38:34;8.52;;;4.82;;
77876;SDS011;67251;50.844;7.978;2023-06-26T07:40:59;7.60;;;4.68;;
77876;SDS011;67251;50.844;7.978;2023-06-26T07:43:25;9.35;;;4.53;;
77876;SDS011;67251;50.844;7.978;2023-06-26T07:45:50;8.40;;;4.53;;
77876;SDS011;67251;50.844;7.978;2023-06-26T07:48:18;10.52;;;5.22;;
77876;SDS011;67251;50.844;7.978;2023-06-26T07:50:43;7.25;;;4.55;;
77876;SDS011;67251;50.844;7.978;2023-06-26T07:53:10;8.32;;;4.25;;
77876;SDS011;67251;50.844;7.978;2023-06-26T07:55:35;10.27;;;4.85;;
77876;SDS011;67251;50.844;7.978;2023-06-26T07:58:01;8.85;;;4.50;;
77876;SDS011;67251;50.844;7.978;2023-06-26T08:00:26;8.52;;;4.47;;
77876;SDS011;67251;50.844;7.978;2023-06-26T08:02:52;7.97;;;4.32;;
77876;SDS011;67251;50.844;7.978;2023-06-26T08:05:17;7.80;;;4.03;;
77876;SDS011;67251;50.844;7.978;2023-06-26T08:07:43;9.23;;;5.05;;
77876;SDS011;67251;50.844;7.978;2023-06-26T08:10:08;8.05;;;4.55;;
77876;SDS011;67251;50.844;7.978;2023-06-26T08:12:34;7.38;;;3.97;;
77876;SDS011;67251;50.844;7.978;2023-06-26T08:15:01;7.32;;;4.18;;
77876;SDS011;67251;50.844;7.978;2023-06-26T08:17:27;9.43;;;4.30;;
77876;SDS011;67251;50.844;7.978;2023-06-26T08:19:53;8.77;;;4.55;;
77876;SDS011;67251;50.844;7.978;2023-06-26T08:22:18;8.00;;;4.28;;
77876;SDS011;67251;50.844;7.978;2023-06-26T08:24:44;7.68;;;4.30;;
77876;SDS011;67251;50.844;7.978;2023-06-26T08:27:09;9.57;;;4.10;;
77876;SDS011;67251;50.844;7.978;2023-06-26T08:29:34;10.73;;;4.20;;
77876;SDS011;67251;50.844;7.978;2023-06-26T08:32:00;9.50;;;4.32;;
77876;SDS011;67251;50.844;7.978;2023-06-26T08:34:27;8.20;;;4.38;;
77876;SDS011;67251;50.844;7.978;2023-06-26T08:36:52;8.75;;;4.10;;
77876;SDS011;67251;50.844;7.978;2023-06-26T08:39:18;7.90;;;3.83;;
77876;SDS011;67251;50.844;7.978;2023-06-26T08:41:43;10.50;;;4.10;;
77876;SDS011;67251;50.844;7.978;2023-06-26T08:44:09;8.98;;;4.13;;
77876;SDS011;67251;50.844;7.978;2023-06-26T08:46:35;7.03;;;3.67;;
77876;SDS011;67251;50.844;7.978;2023-06-26T08:49:02;7.05;;;4.00;;
77876;SDS011;67251;50.844;7.978;2023-06-26T08:51:33;8.77;;;4.28;;
77876;SDS011;67251;50.844;7.978;2023-06-26T08:54:01;8.15;;;3.90;;
77876;SDS011;67251;50.844;7.978;2023-06-26T08:56:32;7.32;;;3.92;;
77876;SDS011;67251;50.844;7.978;2023-06-26T08:59:02;7.68;;;3.97;;
77876;SDS011;67251;50.844;7.978;2023-06-26T09:01:29;8.77;;;3.63;;
77876;SDS011;67251;50.844;7.978;2023-06-26T09:03:56;8.02;;;4.00;;
77876;SDS011;67251;50.844;7.978;2023-06-26T09:06:21;7.97;;;4.00;;
77876;SDS011;67251;50.844;7.978;2023-06-26T09:08:47;9.40;;;4.50;;
77876;SDS011;67251;50.844;7.978;2023-06-26T09:11:13;8.98;;;4.22;;
77876;SDS011;67251;50.844;7.978;2023-06-26T09:13:39;7.47;;;4.13;;
77876;SDS011;67251;50.844;7.978;2023-06-26T09:16:08;6.72;;;4.03;;
77876;SDS011;67251;50.844;7.978;2023-06-26T09:18:34;8.32;;;3.90;;
77876;SDS011;67251;50.844;7.978;2023-06-26T09:21:06;7.68;;;4.20;;
77876;SDS011;67251;50.844;7.978;2023-06-26T09:23:33;7.13;;;4.45;;
77876;SDS011;67251;50.844;7.978;2023-06-26T09:25:59;8.23;;;4.20;;
77876;SDS011;67251;50.844;7.978;2023-06-26T09:28:28;7.13;;;4.35;;
77876;SDS011;67251;50.844;7.978;2023-06-26T09:30:53;9.88;;;4.70;;
77876;SDS011;67251;50.844;7.978;2023-06-26T09:33:19;8.48;;;4.30;;
77876;SDS011;67251;50.844;7.978;2023-06-26T09:35:45;7.60;;;4.43;;
77876;SDS011;67251;50.844;7.978;2023-06-26T09:38:12;9.50;;;4.25;;
77876;SDS011;67251;50.844;7.978;2023-06-26T09:40:39;7.68;;;4.25;;
77876;SDS011;67251;50.844;7.978;2023-06-26T09:43:05;9.68;;;4.82;;
77876;SDS011;67251;50.844;7.978;2023-06-26T09:45:34;8.40;;;4.53;;
77876;SDS011;67251;50.844;7.978;2023-06-26T09:48:03;8.90;;;4.82;;
77876;SDS011;67251;50.844;7.978;2023-06-26T09:50:29;6.63;;;4.32;;
77876;SDS011;67251;50.844;7.978;2023-06-26T09:52:55;7.30;;;4.75;;
77876;SDS011;67251;50.844;7.978;2023-06-26T09:55:21;8.43;;;4.60;;
77876;SDS011;67251;50.844;7.978;2023-06-26T09:57:47;10.15;;;4.50;;
77876;SDS011;67251;50.844;7.978;2023-06-26T10:00:14;7.63;;;3.88;;
77876;SDS011;67251;50.844;7.978;2023-06-26T10:02:41;8.00;;;4.40;;
77876;SDS011;67251;50.844;7.978;2023-06-26T10:05:06;7.88;;;4.10;;
77876;SDS011;67251;50.844;7.978;2023-06-26T10:07:32;8.80;;;4.22;;
77876;SDS011;67251;50.844;7.978;2023-06-26T10:09:58;8.27;;;3.90;;
77876;SDS011;67251;50.844;7.978;2023-06-26T10:12:28;8.00;;;4.20;;
77876;SDS011;67251;50.844;7.978;2023-06-26T10:14:57;8.32;;;4.40;;
77876;SDS011;67251;50.844;7.978;2023-06-26T10:19:50;8.30;;;4.60;;
77876;SDS011;67251;50.844;7.978;2023-06-26T10:22:21;8.80;;;4.30;;
77876;SDS011;67251;50.844;7.978;2023-06-26T10:24:52;9.07;;;4.65;;
77876;SDS011;67251;50.844;7.978;2023-06-26T10:27:23;8.45;;;4.22;;
77876;SDS011;67251;50.844;7.978;2023-06-26T10:29:53;6.13;;;3.92;;
77876;SDS011;67251;50.844;7.978;2023-06-26T10:32:21;7.00;;;4.47;;
77876;SDS011;67251;50.844;7.978;2023-06-26T10:34:50;6.63;;;3.72;;
77876;SDS011;67251;50.844;7.978;2023-06-26T10:37:16;8.40;;;4.20;;
77876;SDS011;67251;50.844;7.978;2023-06-26T10:42:19;9.25;;;4.78;;
77876;SDS011;67251;50.844;7.978;2023-06-26T10:44:58;8.13;;;4.18;;
77876;SDS011;67251;50.844;7.978;2023-06-26T10:47:35;7.50;;;4.53;;
77876;SDS011;67251;50.844;7.978;2023-06-26T10:50:18;6.75;;;4.03;;
77876;SDS011;67251;50.844;7.978;2023-06-26T10:52:46;8.60;;;4.20;;
77876;SDS011;67251;50.844;7.978;2023-06-26T10:55:31;8.75;;;4.20;;
77876;SDS011;67251;50.844;7.978;2023-06-26T10:57:56;6.80;;;3.63;;
77876;SDS011;67251;50.844;7.978;2023-06-26T11:00:22;8.10;;;4.25;;
77876;SDS011;67251;50.844;7.978;2023-06-26T11:02:50;8.55;;;3.85;;
77876;SDS011;67251;50.844;7.978;2023-06-26T11:08:02;7.70;;;3.95;;
77876;SDS011;67251;50.844;7.978;2023-06-26T11:10:29;8.32;;;3.40;;
77876;SDS011;67251;50.844;7.978;2023-06-26T11:12:54;7.07;;;3.63;;
77876;SDS011;67251;50.844;7.978;2023-06-26T11:15:24;8.27;;;3.85;;
77876;SDS011;67251;50.844;7.978;2023-06-26T11:17:51;9.00;;;3.83;;
77876;SDS011;67251;50.844;7.978;2023-06-26T11:20:17;8.38;;;3.88;;
77876;SDS011;67251;50.844;7.978;2023-06-26T11:22:42;10.18;;;4.00;;
77876;SDS011;67251;50.844;7.978;2023-06-26T11:25:09;7.05;;;3.47;;
77876;SDS011;67251;50.844;7.978;2023-06-26T11:30:04;7.20;;;3.20;;
77876;SDS011;67251;50.844;7.978;2023-06-26T11:32:31;6.32;;;3.08;;
77876;SDS011;67251;50.844;7.978;2023-06-26T11:34:57;6.25;;;3.05;;
77876;SDS011;67251;50.844;7.978;2023-06-26T11:37:24;7.47;;;3.08;;
77876;SDS011;67251;50.844;7.978;2023-06-26T11:39:50;7.65;;;2.60;;
77876;SDS011;67251;50.844;7.978;2023-06-26T11:42:16;6.93;;;2.88;;
77876;SDS011;67251;50.844;7.978;2023-06-26T11:44:43;6.55;;;2.58;;
77876;SDS011;67251;50.844;7.978;2023-06-26T11:47:18;7.18;;;3.22;;
77876;SDS011;67251;50.844;7.978;2023-06-26T11:49:45;6.28;;;2.30;;
77876;SDS011;67251;50.844;7.978;2023-06-26T11:52:11;6.80;;;2.25;;
77876;SDS011;67251;50.844;7.978;2023-06-26T11:54:37;8.38;;;2.80;;
77876;SDS011;67251;50.844;7.978;2023-06-26T11:57:04;5.97;;;2.63;;
77876;SDS011;67251;50.844;7.978;2023-06-26T11:59:33;6.55;;;2.75;;
77876;SDS011;67251;50.844;7.978;2023-06-26T12:02:06;6.35;;;2.60;;
77876;SDS011;67251;50.844;7.978;2023-06-26T12:04:32;5.90;;;2.50;;
77876;SDS011;67251;50.844;7.978;2023-06-26T12:07:00;6.93;;;2.50;;
77876;SDS011;67251;50.844;7.978;2023-06-26T12:11:55;6.68;;;2.63;;
77876;SDS011;67251;50.844;7.978;2023-06-26T12:14:22;7.85;;;3.58;;
77876;SDS011;67251;50.844;7.978;2023-06-26T12:16:50;6.63;;;2.50;;
77876;SDS011;67251;50.844;7.978;2023-06-26T12:19:15;8.07;;;2.22;;
77876;SDS011;67251;50.844;7.978;2023-06-26T12:24:12;6.75;;;2.60;;
77876;SDS011;67251;50.844;7.978;2023-06-26T12:26:41;5.60;;;2.50;;
77876;SDS011;67251;50.844;7.978;2023-06-26T12:29:12;6.32;;;2.75;;
77876;SDS011;67251;50.844;7.978;2023-06-26T12:31:42;6.65;;;2.67;;
77876;SDS011;67251;50.844;7.978;2023-06-26T12:34:10;5.75;;;2.60;;
77876;SDS011;67251;50.844;7.978;2023-06-26T12:36:49;5.40;;;2.80;;
77876;SDS011;67251;50.844;7.978;2023-06-26T12:39:21;6.90;;;2.50;;
77876;SDS011;67251;50.844;7.978;2023-06-26T12:41:47;6.80;;;2.38;;
77876;SDS011;67251;50.844;7.978;2023-06-26T12:44:25;7.72;;;2.85;;
77876;SDS011;67251;50.844;7.978;2023-06-26T12:46:58;5.45;;;2.10;;
77876;SDS011;67251;50.844;7.978;2023-06-26T12:49:37;8.48;;;2.40;;
77876;SDS011;67251;50.844;7.978;2023-06-26T12:52:04;5.35;;;2.17;;
77876;SDS011;67251;50.844;7.978;2023-06-26T12:54:35;5.88;;;2.10;;
77876;SDS011;67251;50.844;7.978;2023-06-26T12:57:01;5.45;;;2.35;;
77876;SDS011;67251;50.844;7.978;2023-06-26T12:59:29;6.53;;;2.28;;
77876;SDS011;67251;50.844;7.978;2023-06-26T13:01:54;5.07;;;2.42;;
77876;SDS011;67251;50.844;7.978;2023-06-26T13:04:20;4.43;;;1.70;;
77876;SDS011;67251;50.844;7.978;2023-06-26T13:06:45;6.40;;;2.15;;
77876;SDS011;67251;50.844;7.978;2023-06-26T13:09:11;5.05;;;2.20;;
77876;SDS011;67251;50.844;7.978;2023-06-26T13:11:37;5.35;;;2.00;;
77876;SDS011;67251;50.844;7.978;2023-06-26T13:14:02;5.25;;;2.30;;
77876;SDS011;67251;50.844;7.978;2023-06-26T13:16:28;5.03;;;2.03;;
77876;SDS011;67251;50.844;7.978;2023-06-26T13:18:54;4.38;;;2.10;;
77876;SDS011;67251;50.844;7.978;2023-06-26T13:21:20;5.50;;;2.50;;
77876;SDS011;67251;50.844;7.978;2023-06-26T13:23:46;5.63;;;2.00;;
77876;SDS011;67251;50.844;7.978;2023-06-26T13:26:11;5.13;;;2.00;;
77876;SDS011;67251;50.844;7.978;2023-06-26T13:28:37;4.15;;;2.30;;
77876;SDS011;67251;50.844;7.978;2023-06-26T13:31:03;5.70;;;2.20;;
77876;SDS011;67251;50.844;7.978;2023-06-26T13:33:29;6.18;;;2.72;;
77876;SDS011;67251;50.844;7.978;2023-06-26T13:35:55;5.78;;;2.28;;
77876;SDS011;67251;50.844;7.978;2023-06-26T13:38:20;4.60;;;1.63;;
77876;SDS011;67251;50.844;7.978;2023-06-26T13:40:55;6.20;;;1.85;;
77876;SDS011;67251;50.844;7.978;2023-06-26T13:43:22;5.40;;;2.33;;
77876;SDS011;67251;50.844;7.978;2023-06-26T13:45:48;5.82;;;2.22;;
77876;SDS011;67251;50.844;7.978;2023-06-26T13:48:14;7.97;;;2.40;;
77876;SDS011;67251;50.844;7.978;2023-06-26T13:50:40;6.22;;;2.30;;
77876;SDS011;67251;50.844;7.978;2023-06-26T13:53:05;8.93;;;2.58;;
77876;SDS011;67251;50.844;7.978;2023-06-26T13:55:31;8.25;;;3.03;;
77876;SDS011;67251;50.844;7.978;2023-06-26T13:57:57;4.60;;;2.50;;
77876;SDS011;67251;50.844;7.978;2023-06-26T14:00:23;6.82;;;2.38;;
77876;SDS011;67251;50.844;7.978;2023-06-26T14:02:49;6.57;;;2.50;;
77876;SDS011;67251;50.844;7.978;2023-06-26T14:05:14;7.55;;;2.50;;
77876;SDS011;67251;50.844;7.978;2023-06-26T14:07:40;6.40;;;2.50;;
77876;SDS011;67251;50.844;7.978;2023-06-26T14:10:05;5.97;;;2.17;;
77876;SDS011;67251;50.844;7.978;2023-06-26T14:12:32;5.68;;;1.90;;
77876;SDS011;67251;50.844;7.978;2023-06-26T14:14:57;6.22;;;2.83;;
77876;SDS011;67251;50.844;7.978;2023-06-26T14:17:23;5.93;;;2.13;;
77876;SDS011;67251;50.844;7.978;2023-06-26T14:19:51;8.07;;;2.20;;
77876;SDS011;67251;50.844;7.978;2023-06-26T14:22:17;6.07;;;2.30;;
77876;SDS011;67251;50.844;7.978;2023-06-26T14:24:42;6.50;;;2.10;;
77876;SDS011;67251;50.844;7.978;2023-06-26T14:27:08;4.40;;;1.90;;
77876;SDS011;67251;50.844;7.978;2023-06-26T14:29:33;4.40;;;2.13;;
77876;SDS011;67251;50.844;7.978;2023-06-26T14:31:58;7.78;;;2.42;;
77876;SDS011;67251;50.844;7.978;2023-06-26T14:34:24;6.70;;;2.20;;
77876;SDS011;67251;50.844;7.978;2023-06-26T14:36:49;5.28;;;2.08;;
77876;SDS011;67251;50.844;7.978;2023-06-26T14:39:15;7.20;;;2.25;;
77876;SDS011;67251;50.844;7.978;2023-06-26T14:41:41;4.85;;;1.95;;
77876;SDS011;67251;50.844;7.978;2023-06-26T14:44:07;6.57;;;2.00;;
77876;SDS011;67251;50.844;7.978;2023-06-26T14:46:34;5.47;;;1.73;;
77876;SDS011;67251;50.844;7.978;2023-06-26T14:49:00;4.97;;;2.20;;
77876;SDS011;67251;50.844;7.978;2023-06-26T14:51:26;6.00;;;1.98;;
77876;SDS011;67251;50.844;7.978;2023-06-26T14:53:51;8.18;;;2.45;;
77876;SDS011;67251;50.844;7.978;2023-06-26T14:56:17;4.70;;;1.75;;
77876;SDS011;67251;50.844;7.978;2023-06-26T14:58:42;4.70;;;2.10;;
77876;SDS011;67251;50.844;7.978;2023-06-26T15:01:07;4.72;;;1.90;;
77876;SDS011;67251;50.844;7.978;2023-06-26T15:03:33;3.83;;;1.77;;
77876;SDS011;67251;50.844;7.978;2023-06-26T15:05:59;3.70;;;1.50;;
77876;SDS011;67251;50.844;7.978;2023-06-26T15:08:24;4.57;;;1.80;;